createdAt,value
2022-12-11T00:01:15.040Z,3.83
2022-12-11T00:03:42.163Z,4.20
2022-12-11T00:06:11.112Z,4.13
2022-12-11T00:08:38.251Z,4.18
2022-12-11T00:11:05.641Z,4.05
2022-12-11T00:13:34.623Z,5.22
2022-12-11T00:16:01.857Z,5.07
2022-12-11T00:18:28.813Z,4.38
2022-12-11T00:20:55.833Z,4.55
2022-12-11T00:23:22.853Z,4.95
2022-12-11T00:25:49.978Z,4.88
2022-12-11T00:28:20.604Z,4.85
2022-12-11T00:30:49.033Z,5.07
2022-12-11T00:33:16.512Z,3.88
2022-12-11T00:35:46.487Z,5.32
2022-12-11T00:38:15.261Z,4.65
2022-12-11T00:40:42.866Z,3.90
2022-12-11T00:43:10.098Z,4.50
2022-12-11T00:45:37.365Z,4.82
2022-12-11T00:48:06.996Z,4.97
2022-12-11T00:50:34.044Z,4.30
2022-12-11T00:53:01.105Z,3.90
2022-12-11T00:55:29.268Z,4.93
2022-12-11T00:57:58.346Z,4.68
2022-12-11T01:00:25.473Z,4.22
2022-12-11T01:02:52.460Z,5.13
2022-12-11T01:05:21.831Z,4.63
2022-12-11T01:07:48.988Z,5.47
2022-12-11T01:10:25.478Z,5.53
2022-12-11T01:12:53.559Z,4.38
2022-12-11T01:15:22.974Z,4.80
2022-12-11T01:17:50.666Z,5.03
2022-12-11T01:20:17.867Z,5.35
2022-12-11T01:22:46.247Z,5.93
2022-12-11T01:25:13.372Z,5.43
2022-12-11T01:27:40.340Z,4.90
2022-12-11T01:30:09.109Z,4.88
2022-12-11T01:32:36.518Z,4.70
2022-12-11T01:35:04.458Z,6.35
2022-12-11T01:37:31.549Z,5.25
2022-12-11T01:40:01.942Z,5.10
2022-12-11T01:42:29.703Z,4.65
2022-12-11T01:45:32.101Z,4.57
2022-12-11T01:48:05.549Z,6.18
2022-12-11T01:50:36.918Z,5.97
2022-12-11T01:53:06.503Z,4.72
2022-12-11T01:55:35.580Z,4.68
2022-12-11T01:58:03.013Z,5.70
2022-12-11T02:00:30.041Z,5.45
2022-12-11T02:02:57.345Z,5.82
2022-12-11T02:05:24.345Z,6.10
2022-12-11T02:07:55.615Z,5.03
2022-12-11T02:10:28.540Z,6.20
2022-12-11T02:13:03.381Z,5.97
2022-12-11T02:15:35.818Z,5.72
2022-12-11T02:18:16.712Z,3.72
2022-12-11T02:20:51.879Z,5.40
2022-12-11T02:26:13.407Z,4.05
2022-12-11T02:28:45.673Z,4.55
2022-12-11T02:31:17.156Z,4.45
2022-12-11T02:33:56.855Z,4.43
2022-12-11T02:36:26.288Z,4.47
2022-12-11T02:38:56.643Z,3.78
2022-12-11T02:41:24.930Z,3.55
2022-12-11T02:43:55.366Z,4.55
2022-12-11T02:46:23.113Z,3.88
2022-12-11T02:48:52.028Z,4.35
2022-12-11T02:51:28.216Z,3.92
2022-12-11T02:53:58.275Z,3.78
2022-12-11T02:56:29.691Z,3.42
2022-12-11T02:59:01.317Z,2.97
2022-12-11T03:01:28.555Z,3.75
2022-12-11T03:03:56.498Z,3.25
2022-12-11T03:06:28.522Z,2.72
2022-12-11T03:08:58.065Z,2.83
2022-12-11T03:11:25.334Z,3.53
2022-12-11T03:13:52.824Z,3.38
2022-12-11T03:16:29.975Z,2.85
2022-12-11T03:19:06.365Z,3.30
2022-12-11T03:21:36.465Z,3.15
2022-12-11T03:24:07.993Z,2.53
2022-12-11T03:26:40.622Z,3.60
2022-12-11T03:29:16.073Z,3.08
2022-12-11T03:31:47.370Z,2.45
2022-12-11T03:34:19.284Z,2.92
2022-12-11T03:36:48.630Z,2.65
2022-12-11T03:39:19.181Z,2.60
2022-12-11T03:41:48.618Z,2.97
2022-12-11T03:44:16.260Z,3.08
2022-12-11T03:46:46.918Z,2.40
2022-12-11T03:49:18.598Z,2.92
2022-12-11T03:51:48.615Z,2.63
2022-12-11T03:54:17.130Z,2.55
2022-12-11T03:56:46.905Z,2.92
2022-12-11T03:59:14.123Z,2.35
2022-12-11T04:01:41.089Z,2.58
2022-12-11T04:04:09.732Z,2.38
2022-12-11T04:06:36.744Z,2.20
2022-12-11T04:09:03.894Z,2.95
2022-12-11T04:11:37.007Z,2.25
2022-12-11T04:14:24.332Z,2.75
2022-12-11T04:16:51.609Z,2.60
2022-12-11T04:19:39.714Z,2.20
2022-12-11T04:22:25.682Z,2.10
2022-12-11T04:24:52.885Z,2.70
2022-12-11T04:27:38.613Z,3.15
2022-12-11T04:30:08.009Z,2.40
2022-12-11T04:32:34.944Z,2.20
2022-12-11T04:35:04.015Z,2.65
2022-12-11T04:37:30.953Z,2.28
2022-12-11T04:39:57.894Z,2.35
2022-12-11T04:42:24.854Z,2.85
2022-12-11T04:44:51.933Z,2.50
2022-12-11T04:47:19.049Z,2.70
2022-12-11T04:49:46.290Z,2.67
2022-12-11T04:52:14.770Z,2.40
2022-12-11T04:54:41.779Z,2.63
2022-12-11T04:57:08.786Z,2.65
2022-12-11T04:59:37.231Z,2.42
2022-12-11T05:02:05.065Z,2.70
2022-12-11T05:04:33.257Z,2.67
2022-12-11T05:07:00.418Z,2.88
2022-12-11T05:09:28.878Z,3.45
2022-12-11T05:11:56.051Z,3.72
2022-12-11T05:14:23.105Z,2.45
2022-12-11T05:16:50.044Z,2.60
2022-12-11T05:19:17.493Z,2.63
2022-12-11T05:21:44.534Z,2.30
2022-12-11T05:24:11.618Z,3.03
2022-12-11T05:26:40.121Z,3.05
2022-12-11T05:29:07.165Z,3.03
2022-12-11T05:31:34.167Z,2.47
2022-12-11T05:34:01.432Z,3.03
2022-12-11T05:36:31.045Z,2.83
2022-12-11T05:38:59.851Z,3.28
2022-12-11T05:41:28.907Z,2.80
2022-12-11T05:43:57.545Z,2.83
2022-12-11T05:46:26.600Z,3.00
2022-12-11T05:48:55.432Z,3.55
2022-12-11T05:51:23.005Z,3.10
2022-12-11T05:53:51.825Z,3.40
2022-12-11T05:56:21.497Z,3.35
2022-12-11T05:58:49.677Z,3.83
2022-12-11T06:01:20.771Z,3.13
2022-12-11T06:03:48.101Z,2.67
2022-12-11T06:06:15.278Z,2.70
2022-12-11T06:08:42.502Z,3.25
2022-12-11T06:11:09.601Z,3.40
2022-12-11T06:13:36.935Z,3.50
2022-12-11T06:16:06.154Z,3.55
2022-12-11T06:18:37.874Z,3.00
2022-12-11T06:21:13.476Z,2.95
2022-12-11T06:23:41.800Z,3.53
2022-12-11T06:26:08.973Z,3.15
2022-12-11T06:28:36.333Z,2.78
2022-12-11T06:31:04.099Z,3.10
2022-12-11T06:33:31.174Z,3.20
2022-12-11T06:36:04.181Z,3.13
2022-12-11T06:38:31.235Z,3.13
2022-12-11T06:40:59.816Z,3.25
2022-12-11T06:43:26.935Z,2.92
2022-12-11T06:45:56.884Z,3.25
2022-12-11T06:48:28.598Z,2.97
2022-12-11T06:50:55.546Z,2.70
2022-12-11T06:53:24.028Z,3.60
2022-12-11T06:55:50.983Z,3.22
2022-12-11T06:58:21.040Z,3.42
2022-12-11T07:00:48.717Z,3.55
2022-12-11T07:03:15.739Z,3.90
2022-12-11T07:05:42.725Z,3.75
2022-12-11T07:08:09.947Z,3.55
2022-12-11T07:10:38.602Z,3.60
2022-12-11T07:13:05.914Z,3.80
2022-12-11T07:15:35.308Z,3.72
2022-12-11T07:18:03.539Z,3.78
2022-12-11T07:20:30.465Z,4.18
2022-12-11T07:22:57.414Z,3.63
2022-12-11T07:25:24.337Z,3.90
2022-12-11T07:27:52.710Z,3.72
2022-12-11T07:30:19.711Z,3.78
2022-12-11T07:32:47.004Z,3.58
2022-12-11T07:35:14.236Z,3.70
2022-12-11T07:37:41.723Z,3.78
2022-12-11T07:40:10.119Z,3.47
2022-12-11T07:42:41.413Z,3.35
2022-12-11T07:45:13.353Z,3.38
2022-12-11T07:47:40.521Z,2.70
2022-12-11T07:50:07.953Z,2.80
2022-12-11T07:52:35.059Z,3.42
2022-12-11T07:55:02.042Z,3.25
2022-12-11T07:57:29.517Z,3.10
2022-12-11T07:59:56.577Z,2.20
2022-12-11T08:02:24.954Z,2.50
2022-12-11T08:04:52.029Z,3.30
2022-12-11T08:07:19.042Z,2.67
2022-12-11T08:09:45.961Z,2.53
2022-12-11T08:12:13.357Z,2.70
2022-12-11T08:14:40.334Z,2.67
2022-12-11T08:17:07.521Z,2.90
2022-12-11T08:19:37.915Z,2.78
2022-12-11T08:22:04.857Z,2.92
2022-12-11T08:24:31.836Z,2.70
2022-12-11T08:26:58.833Z,3.67
2022-12-11T08:29:26.109Z,2.70
2022-12-11T08:31:53.030Z,2.80
2022-12-11T08:34:19.960Z,2.78
2022-12-11T08:36:48.485Z,2.00
2022-12-11T08:39:15.750Z,2.13
2022-12-11T08:41:42.730Z,2.38
2022-12-11T08:44:16.404Z,2.28
2022-12-11T08:46:44.141Z,1.93
2022-12-11T08:49:11.128Z,1.75
2022-12-11T08:51:38.894Z,2.42
2022-12-11T08:54:07.382Z,2.20
2022-12-11T08:56:34.336Z,2.40
2022-12-11T08:59:02.025Z,2.70
2022-12-11T09:01:29.465Z,1.85
2022-12-11T09:03:57.056Z,2.20
2022-12-11T09:06:26.326Z,2.08
2022-12-11T09:08:54.047Z,1.50
2022-12-11T09:11:24.332Z,1.80
2022-12-11T09:13:51.420Z,1.92
2022-12-11T09:16:20.475Z,1.58
2022-12-11T09:18:49.125Z,1.98
2022-12-11T09:21:18.433Z,1.63
2022-12-11T09:23:45.733Z,1.55
2022-12-11T09:26:15.835Z,1.45
2022-12-11T09:28:47.516Z,1.90
2022-12-11T09:31:17.641Z,1.73
2022-12-11T09:33:47.658Z,1.80
2022-12-11T09:36:14.670Z,1.80
2022-12-11T09:38:44.240Z,1.42
2022-12-11T09:41:39.802Z,1.70
2022-12-11T09:44:24.188Z,1.67
2022-12-11T09:46:51.911Z,1.73
2022-12-11T09:49:28.745Z,1.83
2022-12-11T09:52:07.085Z,1.70
2022-12-11T09:54:34.229Z,1.85
2022-12-11T09:57:11.726Z,1.90
2022-12-11T10:00:05.641Z,1.55
2022-12-11T10:02:46.904Z,1.92
2022-12-11T10:05:22.174Z,2.00
2022-12-11T10:07:56.720Z,1.63
2022-12-11T10:10:35.750Z,1.83
2022-12-11T10:13:13.021Z,1.67
2022-12-11T10:15:49.312Z,1.67
2022-12-11T10:18:22.998Z,2.03
2022-12-11T10:20:52.883Z,1.80
2022-12-11T10:23:21.821Z,2.05
2022-12-11T10:25:53.575Z,1.45
2022-12-11T10:28:21.183Z,2.00
2022-12-11T10:30:57.739Z,1.42
2022-12-11T10:33:32.006Z,1.67
2022-12-11T10:35:59.417Z,1.60
2022-12-11T10:38:29.672Z,1.67
2022-12-11T10:40:59.853Z,1.92
2022-12-11T10:43:34.661Z,1.60
2022-12-11T10:48:30.558Z,1.45
2022-12-11T10:51:01.001Z,1.80
2022-12-11T10:53:29.146Z,1.92
2022-12-11T10:55:58.613Z,1.40
2022-12-11T10:58:28.486Z,1.70
2022-12-11T11:01:07.620Z,1.30
2022-12-11T11:03:51.852Z,1.77
2022-12-11T11:06:20.164Z,1.30
2022-12-11T11:08:49.221Z,1.58
2022-12-11T11:11:23.679Z,1.40
2022-12-11T11:13:50.929Z,1.55
2022-12-11T11:16:21.666Z,1.67
2022-12-11T11:18:54.896Z,1.63
2022-12-11T11:21:24.037Z,1.80
2022-12-11T11:23:53.673Z,1.58
2022-12-11T11:26:22.709Z,1.77
2022-12-11T11:28:52.260Z,1.67
2022-12-11T11:31:22.966Z,2.00
2022-12-11T11:33:56.413Z,1.92
2022-12-11T11:36:25.117Z,1.75
2022-12-11T11:39:04.410Z,2.17
2022-12-11T11:41:37.713Z,2.33
2022-12-11T11:44:07.474Z,2.80
2022-12-11T11:46:43.262Z,2.40
2022-12-11T11:49:18.721Z,2.60
2022-12-11T11:51:50.629Z,2.88
2022-12-11T11:54:28.406Z,2.90
2022-12-11T11:56:56.868Z,2.03
2022-12-11T11:59:27.735Z,2.30
2022-12-11T12:02:00.537Z,2.10
2022-12-11T12:04:34.521Z,2.00
2022-12-11T12:07:14.394Z,1.90
2022-12-11T12:09:51.818Z,2.00
2022-12-11T12:12:33.768Z,2.30
2022-12-11T12:15:25.416Z,2.38
2022-12-11T12:17:56.536Z,2.90
2022-12-11T12:20:32.302Z,3.00
2022-12-11T12:23:16.033Z,3.28
2022-12-11T12:25:49.219Z,3.50
2022-12-11T12:28:26.505Z,3.22
2022-12-11T12:31:07.299Z,3.30
2022-12-11T12:33:49.977Z,4.00
2022-12-11T12:36:22.568Z,3.00
2022-12-11T12:38:55.054Z,3.50
2022-12-11T12:41:27.381Z,3.30
2022-12-11T12:44:09.501Z,2.95
2022-12-11T12:47:00.469Z,2.78
2022-12-11T12:49:40.109Z,2.47
2022-12-11T12:52:13.829Z,2.20
2022-12-11T12:55:04.132Z,2.25
2022-12-11T12:57:32.130Z,2.50
2022-12-11T12:59:59.387Z,2.95
2022-12-11T13:02:26.744Z,3.30
2022-12-11T13:05:00.884Z,3.38
2022-12-11T13:07:31.302Z,3.53
2022-12-11T13:10:01.038Z,3.50
2022-12-11T13:12:46.655Z,3.35
2022-12-11T13:15:43.747Z,3.65
2022-12-11T13:18:31.162Z,3.40
2022-12-11T13:20:59.796Z,3.97
2022-12-11T13:23:29.262Z,3.25
2022-12-11T13:25:58.457Z,4.13
2022-12-11T13:28:31.846Z,4.43
2022-12-11T13:31:18.402Z,4.50
2022-12-11T13:33:48.684Z,5.05
2022-12-11T13:36:27.971Z,5.93
2022-12-11T13:38:57.992Z,6.38
2022-12-11T13:41:25.186Z,6.25
2022-12-11T13:43:53.804Z,11.38
2022-12-11T13:46:25.870Z,6.85
2022-12-11T13:48:57.190Z,6.15
2022-12-11T13:51:26.225Z,6.35
2022-12-11T13:54:04.271Z,6.95
2022-12-11T13:56:31.274Z,6.25
2022-12-11T13:58:58.231Z,6.05
2022-12-11T14:01:27.762Z,5.85
2022-12-11T14:03:56.524Z,5.88
2022-12-11T14:06:26.276Z,5.93
2022-12-11T14:08:56.362Z,6.57
2022-12-11T14:11:27.951Z,5.53
2022-12-11T14:13:57.398Z,5.47
2022-12-11T14:16:29.590Z,5.10
2022-12-11T14:19:02.668Z,4.60
2022-12-11T14:21:31.563Z,3.80
2022-12-11T14:23:59.963Z,4.22
2022-12-11T14:26:28.352Z,4.82
2022-12-11T14:28:55.618Z,5.00
2022-12-11T14:31:27.842Z,4.10
2022-12-11T14:34:01.040Z,3.70
2022-12-11T14:36:30.207Z,3.50
2022-12-11T14:39:02.365Z,3.10
2022-12-11T14:41:36.619Z,2.20
2022-12-11T14:44:07.989Z,1.52
2022-12-11T14:46:40.105Z,1.75
2022-12-11T14:49:16.683Z,1.50
2022-12-11T14:51:46.074Z,1.17
2022-12-11T14:54:22.059Z,1.10
2022-12-11T14:56:49.256Z,1.05
2022-12-11T14:59:28.360Z,0.77
2022-12-11T15:02:00.608Z,1.02
2022-12-11T15:04:32.208Z,0.98
2022-12-11T15:07:00.746Z,1.10
2022-12-11T15:09:30.427Z,1.02
2022-12-11T15:12:12.597Z,0.85
2022-12-11T15:14:47.250Z,1.08
2022-12-11T15:17:15.265Z,1.27
2022-12-11T15:19:48.466Z,1.15
2022-12-11T15:22:18.058Z,1.60
2022-12-11T15:24:48.846Z,1.40
2022-12-11T15:27:25.559Z,1.10
2022-12-11T15:29:52.962Z,0.98
2022-12-11T15:32:21.795Z,1.25
2022-12-11T15:34:52.095Z,1.10
2022-12-11T15:37:25.526Z,1.00
2022-12-11T15:39:53.634Z,1.23
2022-12-11T15:42:26.600Z,1.58
2022-12-11T15:44:55.534Z,1.00
2022-12-11T15:47:25.633Z,1.20
2022-12-11T15:49:55.509Z,1.17
2022-12-11T15:52:25.501Z,1.80
2022-12-11T15:54:52.454Z,1.40
2022-12-11T15:57:21.554Z,1.52
2022-12-11T15:59:51.254Z,1.48
2022-12-11T16:02:18.627Z,1.90
2022-12-11T16:04:45.594Z,2.00
2022-12-11T16:07:17.335Z,1.83
2022-12-11T16:09:46.858Z,1.80
2022-12-11T16:12:14.392Z,1.50
2022-12-11T16:14:41.550Z,1.90
2022-12-11T16:17:09.762Z,1.58
2022-12-11T16:19:37.260Z,1.50
2022-12-11T16:22:04.902Z,1.40
2022-12-11T16:24:32.525Z,1.63
2022-12-11T16:27:00.998Z,1.52
2022-12-11T16:29:28.523Z,1.50
2022-12-11T16:31:55.550Z,1.20
2022-12-11T16:34:25.542Z,0.90
2022-12-11T16:36:52.985Z,0.90
2022-12-11T16:39:20.259Z,0.80
2022-12-11T16:41:47.293Z,0.90
2022-12-11T16:44:19.680Z,0.68
2022-12-11T16:46:46.761Z,0.88
2022-12-11T16:49:13.981Z,0.93
2022-12-11T16:51:41.346Z,1.10
2022-12-11T16:54:08.489Z,1.08
2022-12-11T16:56:36.114Z,1.08
2022-12-11T16:59:03.560Z,1.10
2022-12-11T17:01:32.089Z,1.10
2022-12-11T17:03:59.430Z,0.95
2022-12-11T17:06:26.621Z,1.30
2022-12-11T17:08:53.661Z,1.00
2022-12-11T17:11:22.326Z,1.15
2022-12-11T17:13:54.102Z,1.15
2022-12-11T17:16:22.369Z,1.27
2022-12-11T17:18:50.765Z,1.30
2022-12-11T17:21:19.045Z,1.30
2022-12-11T17:23:46.062Z,1.27
2022-12-11T17:26:13.464Z,1.33
2022-12-11T17:28:40.546Z,1.17
2022-12-11T17:31:09.365Z,1.25
2022-12-11T17:33:38.071Z,1.20
2022-12-11T17:36:08.030Z,1.40
2022-12-11T17:38:35.849Z,1.52
2022-12-11T17:41:06.272Z,1.40
2022-12-11T17:43:33.573Z,1.48
2022-12-11T17:46:01.014Z,1.20
2022-12-11T17:48:28.063Z,1.40
2022-12-11T17:50:58.385Z,1.55
2022-12-11T17:53:26.740Z,1.40
2022-12-11T17:55:53.900Z,1.42
2022-12-11T17:58:22.798Z,1.70
2022-12-11T18:00:53.221Z,1.70
2022-12-11T18:03:20.322Z,1.40
2022-12-11T18:05:50.326Z,1.30
2022-12-11T18:08:19.269Z,1.50
2022-12-11T18:10:48.013Z,1.30
2022-12-11T18:13:15.281Z,1.10
2022-12-11T18:15:42.258Z,1.50
2022-12-11T18:18:09.345Z,1.38
2022-12-11T18:20:37.565Z,1.10
2022-12-11T18:23:05.090Z,1.42
2022-12-11T18:25:32.526Z,1.30
2022-12-11T18:28:01.204Z,1.42
2022-12-11T18:30:28.929Z,1.67
2022-12-11T18:32:55.948Z,1.80
2022-12-11T18:35:23.164Z,1.60
2022-12-11T18:37:50.112Z,1.92
2022-12-11T18:40:17.291Z,2.08
2022-12-11T18:42:44.396Z,1.92
2022-12-11T18:45:13.051Z,1.63
2022-12-11T18:47:40.681Z,1.75
2022-12-11T18:50:08.477Z,1.80
2022-12-11T18:52:37.530Z,1.77
2022-12-11T18:55:05.220Z,2.17
2022-12-11T18:57:32.496Z,1.73
2022-12-11T19:00:07.079Z,1.75
2022-12-11T19:02:35.894Z,1.95
2022-12-11T19:05:03.919Z,1.70
2022-12-11T19:07:31.421Z,1.40
2022-12-11T19:09:58.530Z,1.25
2022-12-11T19:12:25.701Z,1.17
2022-12-11T19:14:52.719Z,1.30
2022-12-11T19:17:19.684Z,1.17
2022-12-11T19:19:48.130Z,1.27
2022-12-11T19:22:15.111Z,1.92
2022-12-11T19:24:42.101Z,1.67
2022-12-11T19:27:13.432Z,1.73
2022-12-11T19:29:41.335Z,1.33
2022-12-11T19:32:08.562Z,1.90
2022-12-11T19:34:36.069Z,1.60
2022-12-11T19:37:05.855Z,1.63
2022-12-11T19:39:32.837Z,1.60
2022-12-11T19:41:59.929Z,2.00
2022-12-11T19:44:27.258Z,1.98
2022-12-11T19:46:54.397Z,2.30
2022-12-11T19:49:21.597Z,2.15
2022-12-11T19:51:48.849Z,2.00
2022-12-11T19:54:18.048Z,2.30
2022-12-11T19:56:45.344Z,2.15
2022-12-11T19:59:15.406Z,1.92
2022-12-11T20:01:43.101Z,1.50
2022-12-11T20:04:12.493Z,1.50
2022-12-11T20:06:42.932Z,1.00
2022-12-11T20:09:12.022Z,0.85
2022-12-11T20:11:42.611Z,1.10
2022-12-11T20:14:15.446Z,1.40
2022-12-11T20:19:29.964Z,1.73
2022-12-11T20:21:57.120Z,2.47
2022-12-11T20:24:24.100Z,1.98
2022-12-11T20:26:54.644Z,2.17
2022-12-11T20:29:21.601Z,2.03
2022-12-11T20:31:50.327Z,2.50
2022-12-11T20:34:17.524Z,2.58
2022-12-11T20:36:44.622Z,2.60
2022-12-11T20:39:11.588Z,3.40
2022-12-11T20:41:38.624Z,4.20
2022-12-11T20:44:06.990Z,3.40
2022-12-11T20:46:34.301Z,4.53
2022-12-11T20:49:01.276Z,3.88
2022-12-11T20:51:29.129Z,4.43
2022-12-11T20:53:59.715Z,4.25
2022-12-11T20:56:28.561Z,4.28
2022-12-11T20:58:56.629Z,4.53
2022-12-11T21:01:28.626Z,4.13
2022-12-11T21:03:56.386Z,4.10
2022-12-11T21:06:26.155Z,4.28
2022-12-11T21:08:53.329Z,5.35
2022-12-11T21:11:20.699Z,5.80
2022-12-11T21:13:50.484Z,6.07
2022-12-11T21:16:18.565Z,5.97
2022-12-11T21:18:47.089Z,6.47
2022-12-11T21:21:14.561Z,6.72
2022-12-11T21:23:41.742Z,7.03
2022-12-11T21:26:09.077Z,6.43
2022-12-11T21:28:36.429Z,5.88
2022-12-11T21:31:06.022Z,5.43
2022-12-11T21:33:33.461Z,5.45
2022-12-11T21:36:03.029Z,6.07
2022-12-11T21:38:30.498Z,6.53
2022-12-11T21:40:57.626Z,6.80
2022-12-11T21:43:25.010Z,6.28
2022-12-11T21:46:01.319Z,7.25
2022-12-11T21:48:29.515Z,7.18
2022-12-11T21:51:05.397Z,7.05
2022-12-11T21:53:32.501Z,6.90
2022-12-11T21:55:59.509Z,7.80
2022-12-11T21:58:26.466Z,8.10
2022-12-11T22:00:53.430Z,8.38
2022-12-11T22:03:20.433Z,7.68
2022-12-11T22:05:47.499Z,7.47
2022-12-11T22:08:16.022Z,7.38
2022-12-11T22:10:43.247Z,6.85
2022-12-11T22:13:10.197Z,7.55
2022-12-11T22:15:37.306Z,7.13
2022-12-11T22:18:04.677Z,6.80
2022-12-11T22:20:31.672Z,8.57
2022-12-11T22:22:58.683Z,7.60
2022-12-11T22:25:27.078Z,7.95
2022-12-11T22:27:54.046Z,7.15
2022-12-11T22:30:21.079Z,7.32
2022-12-11T22:32:48.725Z,8.27
2022-12-11T22:35:16.057Z,7.75
2022-12-11T22:37:43.075Z,8.63
2022-12-11T22:40:10.544Z,7.85
2022-12-11T22:42:38.962Z,8.55
2022-12-11T22:45:07.001Z,9.05
2022-12-11T22:47:33.941Z,8.70
2022-12-11T22:50:00.900Z,7.82
2022-12-11T22:52:27.993Z,9.52
2022-12-11T22:54:54.970Z,9.43
2022-12-11T22:57:21.885Z,9.20
2022-12-11T22:59:50.646Z,8.60
2022-12-11T23:02:17.729Z,9.52
2022-12-11T23:04:44.996Z,9.88
2022-12-11T23:07:11.946Z,9.50
2022-12-11T23:09:39.035Z,7.93
2022-12-11T23:12:06.809Z,9.98
2022-12-11T23:14:33.909Z,9.45
2022-12-11T23:17:02.319Z,10.02
2022-12-11T23:19:29.324Z,10.20
2022-12-11T23:21:56.319Z,9.45
2022-12-11T23:24:23.353Z,9.40
2022-12-11T23:26:50.640Z,10.00
2022-12-11T23:29:17.570Z,10.77
2022-12-11T23:31:44.617Z,11.38
2022-12-11T23:34:12.970Z,11.13
2022-12-11T23:36:39.921Z,9.95
2022-12-11T23:39:07.542Z,10.20
2022-12-11T23:41:34.545Z,10.52
2022-12-11T23:44:01.764Z,10.43
2022-12-11T23:46:28.797Z,10.48
2022-12-11T23:48:57.126Z,9.95
2022-12-11T23:51:25.917Z,10.07
2022-12-11T23:53:52.968Z,9.93
2022-12-11T23:56:22.635Z,10.32
2022-12-11T23:58:50.078Z,10.90
